Latest Weather Observations for Dennes Point

IDT60901

Issued at 6:21 pm EDT Sunday 29 March 2015 (issued every 10 minutes, with the page automatically refreshed every 10 minutes)

About weather observations | Map of Hobart area stations | Latest observations for Hobart area | Other Formats
Station Details ID: 094255 Name: DENNES POINT Lat: -43.06 Lon: 147.36 Height: 5.67 m
Data from the previous 72 hours. | See also: Recent months at Dennes Point
Date/Time
EDT
Tmp

°C
App
Tmp
°C
Dew
Point
°C
Rel
Hum
%
Delta-T

°C
Wind Press
QNH
hPa
Press
MSL
hPa
Rain
since
9 am
mm
Dir
 
Spd
km/h
Gust
km/h
Spd
kts
Gust
kts
29/06:00pm 13.2 12.7 10.6 84 1.4 NE 4 6 2 3 1016.2 1016.2 1.4
29/05:30pm 13.3 13.2 10.7 84 1.4 ENE 2 6 1 3 1016.0 1016.0 1.4
29/05:00pm 13.2 12.2 10.9 86 1.2 E 7 9 4 5 1015.9 1015.8 1.4
29/04:30pm 13.1 12.3 11.0 87 1.1 E 6 7 3 4 1015.8 1015.7 1.4
29/04:00pm 13.2 12.9 11.3 88 1.0 E 4 7 2 4 1015.7 1015.6 1.4
29/03:30pm 13.1 12.2 11.2 88 1.0 SSE 7 11 4 6 1015.6 1015.5 1.4
29/03:00pm 13.4 12.7 12.0 91 0.8 SSE 7 11 4 6 1015.5 1015.4 1.4
29/02:30pm 12.7 12.0 11.3 91 0.7 SSE 6 9 3 5 1015.5 1015.4 1.4
29/02:00pm 12.8 11.6 11.5 92 0.7 SSW 9 15 5 8 1015.5 1015.4 1.2
29/01:30pm 12.6 11.2 11.0 90 0.8 S 9 15 5 8 1015.2 1015.1 0.6
29/01:00pm 14.0 12.5 11.9 87 1.1 SSE 11 19 6 10 1015.0 1014.9 0.0
29/12:30pm 16.5 14.6 10.6 68 3.1 W 11 17 6 9 1014.3 1014.2 0.0
29/12:00pm 16.2 13.9 10.5 69 3.0 NNW 13 22 7 12 1014.0 1013.9 0.0
29/11:30am 15.8 11.8 10.3 70 2.9 N 22 30 12 16 1014.0 1013.9 0.0
29/11:00am 15.6 11.5 10.2 70 2.8 N 22 30 12 16 1014.1 1014.0 0.0
29/10:30am 15.4 11.9 10.2 71 2.7 N 19 26 10 14 1014.1 1014.0 0.0
29/10:00am 15.0 12.0 9.1 68 3.0 NNW 15 19 8 10 1014.1 1014.0 0.0
29/09:30am 14.9 10.9 9.1 68 3.0 NNW 20 26 11 14 1014.0 1013.9 0.0
29/09:00am 14.8 9.7 9.2 69 2.9 NNW 26 33 14 18 1013.9 1013.8 0.0
29/08:30am 14.6 9.5 9.2 70 2.8 NNW 26 35 14 19 1013.7 1013.6 0.0
29/08:00am 14.7 9.8 8.4 66 3.2 NW 24 33 13 18 1013.4 1013.3 0.0
29/07:30am 14.2 10.0 8.4 68 2.9 NW 20 28 11 15 1013.6 1013.5 0.0
29/07:00am 14.5 8.6 7.5 63 3.5 WNW 28 43 15 23 1013.4 1013.3 0.0
29/06:30am 14.2 9.1 7.7 65 3.2 WNW 24 37 13 20 1013.1 1013.0 0.0
29/06:00am 13.3 9.3 8.2 71 2.5 NW 19 26 10 14 1013.2 1013.1 0.0
29/05:30am 12.6 8.9 7.9 73 2.3 NNW 17 24 9 13 1013.5 1013.4 0.0
29/05:00am 13.0 9.0 9.1 77 2.0 NNW 20 28 11 15 1013.4 1013.3 0.0
29/04:30am 12.6 9.5 8.9 78 1.9 N 15 20 8 11 1013.6 1013.5 0.0
29/04:00am 12.8 11.1 8.5 75 2.1 NNW 7 11 4 6 1014.5 1014.4 0.0
29/03:30am 12.6 9.0 8.3 75 2.1 NNW 17 22 9 12 1014.4 1014.3 0.0
29/03:00am 12.4 8.3 7.7 73 2.3 NW 19 26 10 14 1014.5 1014.4 0.0
29/02:30am 10.2 8.7 8.5 89 0.8 SSW 6 9 3 5 1015.0 1014.9 0.0
29/02:00am 9.9 8.2 8.2 89 0.8 SSW 7 11 4 6 1015.6 1015.5 0.0
29/01:30am 9.8 7.7 8.1 89 0.8 SSW 9 11 5 6 1015.6 1015.5 0.0
29/01:00am 10.2 8.1 8.1 87 1.0 SSW 9 13 5 7 1015.8 1015.7 0.0
29/12:30am 10.1 8.0 8.4 89 0.8 SSW 9 9 5 5 1016.0 1016.0 0.0
29/12:00am 10.3 8.3 8.7 90 0.8 SSW 9 13 5 7 1016.4 1016.4 0.0
 
Date/Time
EDT
Tmp

°C
App
Tmp
°C
Dew
Point
°C
Rel
Hum
%
Delta-T

°C
Wind Press
QNH
hPa
Press
MSL
hPa
Rain
since
9 am
mm
Dir
 
Spd
km/h
Gust
km/h
Spd
kts
Gust
kts
28/11:30pm 10.8 8.9 9.1 89 0.8 SSW 9 11 5 6 1016.7 1016.7 0.0
28/11:00pm 10.6 8.7 8.9 89 0.8 SSW 9 13 5 7 1017.2 1017.2 0.0
28/10:30pm 11.0 8.8 9.3 89 0.8 SSW 11 13 6 7 1017.6 1017.6 0.0
28/10:00pm 11.7 10.4 9.8 88 1.0 SSW 7 11 4 6 1018.0 1018.0 0.0
28/09:30pm 12.1 10.8 9.1 82 1.5 S 6 7 3 4 1018.0 1018.0 0.0
28/09:00pm 13.6 12.2 9.5 76 2.1 NE 7 9 4 5 1018.1 1018.1 0.0
28/08:30pm 13.4 12.3 9.8 79 1.8 SE 6 9 3 5 1018.1 1018.1 0.0
28/08:00pm 12.9 11.7 9.4 79 1.8 ESE 6 7 3 4 1018.1 1018.1 0.0
28/07:30pm 13.5 11.7 9.6 77 2.0 SE 9 11 5 6 1018.0 1018.0 0.0
28/07:00pm 13.7 11.8 9.0 73 2.4 ESE 9 13 5 7 1017.9 1017.9 0.0
28/06:30pm 14.7 12.9 9.5 71 2.7 SE 9 11 5 6 1018.0 1018.0 0.0
28/06:00pm 14.8 12.3 9.6 71 2.7 ESE 13 17 7 9 1017.9 1017.9 0.0
28/05:30pm 15.3 12.5 9.9 70 2.8 ESE 15 22 8 12 1017.9 1017.9 0.0
28/05:00pm 15.7 12.4 9.6 67 3.2 ESE 17 20 9 11 1017.9 1017.9 0.0
28/04:30pm 16.5 13.4 8.7 60 4.0 ESE 15 19 8 10 1018.0 1018.0 0.0
28/04:00pm 16.8 14.7 9.7 63 3.7 ESE 11 13 6 7 1018.1 1018.1 0.0
28/03:30pm 16.8 15.3 9.0 60 4.0 E 7 9 4 5 1018.3 1018.3 0.0
28/03:00pm 16.5 14.8 8.2 58 4.2 ENE 7 9 4 5 1018.6 1018.6 0.0
28/02:30pm 17.1 15.3 8.0 55 4.6 NNE 7 9 4 5 1018.8 1018.8 0.0
28/02:00pm 16.4 14.3 8.1 58 4.2 NNE 9 13 5 7 1019.2 1019.2 0.0
28/01:30pm 16.2 14.4 7.9 58 4.2 NNE 7 11 4 6 1019.5 1019.5 0.0
28/01:00pm 16.0 14.3 7.5 57 4.2 NE 6 7 3 4 1019.9 1019.9 0.0
28/12:30pm 14.9 12.9 7.2 60 3.8 NE 7 11 4 6 1020.3 1020.3 0.0
28/12:00pm 14.8 12.8 7.1 60 3.8 N 7 13 4 7 1020.6 1020.6 0.0
28/11:30am 15.2 12.9 7.5 60 3.8 WSW 9 17 5 9 1020.8 1020.8 0.0
28/11:00am 14.7 12.6 6.8 59 3.8 W 7 9 4 5 1021.0 1021.0 0.0
28/10:30am 14.0 12.2 7.1 63 3.4 N 6 9 3 5 1021.2 1021.2 0.0
28/10:00am 13.5 11.1 7.1 65 3.1 NW 9 13 5 7 1021.3 1021.3 0.0
28/09:30am 13.5 11.1 6.8 64 3.2 NW 9 13 5 7 1021.0 1021.0 0.0
28/09:00am 13.2 10.8 7.0 66 3.0 W 9 13 5 7 1021.0 1021.0 7.2
28/08:30am 12.8 10.0 6.8 67 2.9 WNW 11 17 6 9 1020.9 1020.9 7.2
28/08:00am 11.3 9.3 7.0 75 2.0 SW 7 11 4 6 1020.8 1020.8 7.2
28/07:30am 10.3 8.2 5.7 73 2.1 WSW 6 9 3 5 1020.7 1020.7 7.2
28/07:00am 10.9 8.3 5.9 71 2.3 W 9 13 5 7 1020.6 1020.6 7.2
28/06:30am 11.4 6.9 6.1 70 2.5 WSW 19 22 10 12 1020.4 1020.4 7.2
28/06:00am 11.5 7.9 6.6 72 2.3 WSW 15 22 8 12 1020.4 1020.4 7.2
28/05:30am 12.1 7.8 7.0 71 2.4 WSW 19 24 10 13 1020.1 1020.1 7.2
28/05:00am 12.3 8.2 7.8 74 2.2 WSW 19 24 10 13 1019.9 1019.9 7.2
28/04:30am 12.4 8.3 7.7 73 2.3 W 19 24 10 13 1020.0 1020.0 7.2
28/04:00am 12.4 8.0 7.5 72 2.4 WSW 20 24 11 13 1020.0 1020.0 7.2
28/03:30am 12.6 8.9 8.1 74 2.2 WSW 17 22 9 12 1020.1 1020.1 7.2
28/03:00am 12.5 9.7 8.4 76 2.0 WSW 13 19 7 10 1020.3 1020.3 7.2
28/02:30am 12.4 8.8 8.5 77 1.9 W 17 20 9 11 1020.3 1020.3 7.2
28/02:00am 12.2 10.6 8.7 79 1.7 SW 7 17 4 9 1020.5 1020.5 7.2
28/01:30am 12.2 10.3 8.9 80 1.6 SW 9 15 5 8 1020.3 1020.3 7.2
28/01:00am 12.2 10.3 9.0 81 1.6 SW 9 15 5 8 1020.3 1020.3 7.2
28/12:30am 11.8 10.4 9.7 87 1.1 SSW 7 11 4 6 1020.2 1020.2 7.2
28/12:00am 12.2 10.5 9.9 86 1.2 SSW 9 13 5 7 1020.2 1020.2 7.2
 
Date/Time
EDT
Tmp

°C
App
Tmp
°C
Dew
Point
°C
Rel
Hum
%
Delta-T

°C
Wind Press
QNH
hPa
Press
MSL
hPa
Rain
since
9 am
mm
Dir
 
Spd
km/h
Gust
km/h
Spd
kts
Gust
kts
27/11:30pm 12.1 9.6 9.8 86 1.2 SSW 13 19 7 10 1020.2 1020.2 7.2
27/11:00pm 12.1 9.7 10.2 88 1.0 SSW 13 19 7 10 1020.3 1020.3 7.2
27/10:30pm 12.1 9.8 10.5 90 0.8 SSW 13 20 7 11 1020.1 1020.1 7.2
27/10:00pm 12.3 10.1 10.7 90 0.8 SSW 13 24 7 13 1020.0 1020.0 6.6
27/09:30pm 12.8 11.0 11.0 89 0.9 SSW 11 17 6 9 1019.8 1019.8 6.2
27/09:00pm 13.1 10.9 10.8 86 1.2 SW 13 17 7 9 1019.5 1019.5 6.0
27/08:30pm 13.0 11.2 10.7 86 1.2 SSW 11 17 6 9 1019.2 1019.2 6.0
27/08:00pm 13.0 10.7 10.4 84 1.3 SSW 13 20 7 11 1018.8 1018.8 6.0
27/07:30pm 12.6 9.8 10.1 85 1.3 SSW 15 20 8 11 1018.4 1018.4 6.0
27/07:00pm 13.1 10.7 10.1 82 1.5 SSW 13 19 7 10 1017.9 1017.9 5.8
27/06:30pm 13.0 9.9 10.2 83 1.4 SSW 17 24 9 13 1017.4 1017.4 5.8
27/06:00pm 12.7 9.1 10.4 86 1.2 SSW 20 37 11 20 1017.1 1017.1 5.8
27/05:30pm 12.3 9.0 10.9 91 0.7 SSW 19 30 10 16 1016.9 1016.9 5.8
27/05:00pm 12.2 8.2 10.6 90 0.8 SSW 22 35 12 19 1016.5 1016.5 5.6
27/04:30pm 12.4 8.6 11.0 91 0.7 SSW 22 32 12 17 1016.3 1016.3 5.4
27/04:00pm 12.5 9.3 11.1 91 0.7 SSW 19 33 10 18 1016.0 1016.0 3.2
27/03:30pm 13.6 9.5 10.2 80 1.8 SSW 22 33 12 18 1015.7 1015.6 1.2
27/03:00pm 14.3 11.0 10.9 80 1.8 SSW 19 33 10 18 1015.3 1015.2 1.2
27/02:30pm 13.9 9.3 10.9 82 1.6 SW 26 37 14 20 1015.0 1014.9 1.2
27/02:00pm 15.7 10.9 11.5 76 2.3 SSW 28 41 15 22 1014.6 1014.5 1.2
27/01:30pm 15.2 11.5 11.6 79 1.9 SSW 22 35 12 19 1014.6 1014.5 1.2
27/01:00pm 14.1 10.2 10.9 81 1.7 SW 22 35 12 19 1014.4 1014.3 1.2
27/12:30pm 14.0 9.4 11.0 82 1.6 SW 26 43 14 23 1014.1 1014.0 1.2
27/12:00pm 13.9 10.5 11.4 85 1.3 SW 20 30 11 16 1013.7 1013.6 1.2
27/11:30am 13.2 9.7 10.9 86 1.2 SW 20 30 11 16 1013.2 1013.1 1.2
27/11:00am 12.0 8.3 10.1 88 1.0 SW 20 30 11 16 1013.0 1012.9 1.2
27/10:30am 12.2 9.1 10.3 88 1.0 SW 17 28 9 15 1012.6 1012.5 1.0
27/10:00am 11.7 8.6 10.3 91 0.7 WSW 17 22 9 12 1012.1 1012.0 1.0
27/09:30am 10.7 7.3 9.3 91 0.7 WSW 17 20 9 11 1011.6 1011.5 0.8
27/09:00am 10.4 7.7 9.0 91 0.7 WSW 13 19 7 10 1011.1 1011.0 12.8
27/08:30am 10.1 7.3 8.5 90 0.8 SW 13 19 7 10 1010.9 1010.8 12.0
27/08:00am 10.6 6.4 8.4 86 1.1 WSW 20 24 11 13 1010.5 1010.4 10.8
27/07:30am 10.3 6.1 8.1 86 1.1 WSW 20 26 11 14 1010.0 1009.9 10.0
27/07:00am 10.0 6.3 7.9 87 1.0 W 17 20 9 11 1010.0 1009.9 9.6
27/06:30am 9.9 6.1 7.5 85 1.1 WSW 17 26 9 14 1009.8 1009.7 8.4
27/06:00am 10.1 6.8 8.0 87 1.0 WSW 15 20 8 11 1009.6 1009.5 7.4
27/05:30am 10.4 7.4 7.8 84 1.3 WSW 13 19 7 10 1009.5 1009.4 6.4
27/05:00am 10.2 6.4 7.6 84 1.2 W 17 20 9 11 1009.7 1009.6 6.2
27/04:30am 10.1 6.7 7.5 84 1.2 WNW 15 17 8 9 1009.8 1009.7 6.2
27/04:00am 10.7 6.9 7.6 81 1.5 W 17 19 9 10 1010.0 1009.9 4.8
27/03:30am 10.9 7.7 7.0 77 1.9 WSW 13 19 7 10 1010.1 1010.0 4.4
27/03:00am 10.8 7.7 7.3 79 1.7 W 13 17 7 9 1010.4 1010.3 4.4
27/02:30am 10.8 7.2 6.9 77 1.8 W 15 19 8 10 1010.5 1010.4 4.4
27/02:00am 11.1 7.6 7.2 77 1.9 W 15 19 8 10 1010.7 1010.6 4.4
27/01:30am 10.7 8.8 7.6 81 1.5 SW 7 13 4 7 1010.9 1010.8 4.4
27/01:00am 10.4 8.6 7.1 80 1.6 SW 6 9 3 5 1010.9 1010.8 4.4
27/12:30am 10.4 7.6 7.1 80 1.6 SW 11 17 6 9 1010.9 1010.8 4.4
27/12:00am 10.3 8.0 7.4 82 1.4 SSW 9 11 5 6 1011.1 1011.0 4.4
 
Date/Time
EDT
Tmp

°C
App
Tmp
°C
Dew
Point
°C
Rel
Hum
%
Delta-T

°C
Wind Press
QNH
hPa
Press
MSL
hPa
Rain
since
9 am
mm
Dir
 
Spd
km/h
Gust
km/h
Spd
kts
Gust
kts
26/11:30pm 10.3 8.4 6.8 79 1.6 SSW 6 9 3 5 1011.4 1011.3 4.4
26/11:00pm 10.4 8.1 7.3 81 1.5 SSW 9 11 5 6 1011.2 1011.1 4.4
26/10:30pm 11.2 8.7 8.1 81 1.5 WSW 11 13 6 7 1011.0 1010.9 4.4
26/10:00pm 11.7 9.7 8.7 82 1.5 W 9 13 5 7 1011.1 1011.0 4.4
26/09:30pm 11.8 10.3 8.3 79 1.7 SSE 6 7 3 4 1011.4 1011.3 4.4
26/09:00pm 11.9 10.0 7.4 74 2.2 SSE 7 9 4 5 1011.4 1011.3 4.4
26/08:30pm 11.9 10.3 8.0 77 1.9 S 6 9 3 5 1011.2 1011.1 4.4
26/08:00pm 12.4 11.1 7.7 73 2.3 WSW 4 6 2 3 1011.1 1011.0 4.2
26/07:30pm 12.5 10.2 9.0 79 1.8 W 11 17 6 9 1010.5 1010.4 4.2
26/07:00pm 12.4 9.7 8.9 79 1.8 WNW 13 20 7 11 1010.4 1010.3 4.2
26/06:30pm 13.9 11.7 9.5 75 2.3 SE 11 15 6 8 1009.8 1009.7 4.0

Latest Capital City Observations: Canberra | Sydney | Melbourne | Brisbane | Adelaide | Perth | Hobart | Darwin

Other Formats:

Comma delimited format used in spreadsheet applications
http://www.bom.gov.au/fwo/IDT60901/IDT60901.94988.axf

JavaScript Object Notation format (JSON) in row-major order
http://www.bom.gov.au/fwo/IDT60901/IDT60901.94988.json